sensor_id;sensor_type;location;lat;lon;timestamp;temperature;humidity
20358;DHT22;75325;47.812;13.026;2024-01-30T00:00:50;7.10;49.90
20358;DHT22;75325;47.812;13.026;2024-01-30T00:03:19;7.10;50.00
20358;DHT22;75325;47.812;13.026;2024-01-30T00:05:47;7.00;50.00
20358;DHT22;75325;47.812;13.026;2024-01-30T00:08:17;7.00;50.00
20358;DHT22;75325;47.812;13.026;2024-01-30T00:10:45;7.00;50.00
20358;DHT22;75325;47.812;13.026;2024-01-30T00:13:14;6.90;50.00
20358;DHT22;75325;47.812;13.026;2024-01-30T00:15:44;6.90;50.10
20358;DHT22;75325;47.812;13.026;2024-01-30T00:18:13;6.80;50.10
20358;DHT22;75325;47.812;13.026;2024-01-30T00:20:41;6.80;50.20
20358;DHT22;75325;47.812;13.026;2024-01-30T00:23:10;6.70;50.20
20358;DHT22;75325;47.812;13.026;2024-01-30T00:25:40;6.70;50.20
20358;DHT22;75325;47.812;13.026;2024-01-30T00:28:08;6.70;50.20
20358;DHT22;75325;47.812;13.026;2024-01-30T00:30:36;6.70;50.20
20358;DHT22;75325;47.812;13.026;2024-01-30T00:33:05;6.70;50.20
20358;DHT22;75325;47.812;13.026;2024-01-30T00:35:33;6.60;50.10
20358;DHT22;75325;47.812;13.026;2024-01-30T00:38:01;6.50;50.10
20358;DHT22;75325;47.812;13.026;2024-01-30T00:40:30;6.50;50.20
20358;DHT22;75325;47.812;13.026;2024-01-30T00:42:59;6.40;50.20
20358;DHT22;75325;47.812;13.026;2024-01-30T00:45:27;6.40;50.20
20358;DHT22;75325;47.812;13.026;2024-01-30T00:47:56;6.30;50.20
20358;DHT22;75325;47.812;13.026;2024-01-30T00:50:24;6.20;50.20
20358;DHT22;75325;47.812;13.026;2024-01-30T00:52:53;6.20;50.50
20358;DHT22;75325;47.812;13.026;2024-01-30T00:55:21;6.10;50.30
20358;DHT22;75325;47.812;13.026;2024-01-30T00:57:49;6.10;50.40
20358;DHT22;75325;47.812;13.026;2024-01-30T01:00:19;6.00;50.30
20358;DHT22;75325;47.812;13.026;2024-01-30T01:02:48;6.00;50.50
20358;DHT22;75325;47.812;13.026;2024-01-30T01:05:17;5.90;50.40
20358;DHT22;75325;47.812;13.026;2024-01-30T01:07:45;5.90;50.80
20358;DHT22;75325;47.812;13.026;2024-01-30T01:10:16;5.90;50.60
20358;DHT22;75325;47.812;13.026;2024-01-30T01:12:45;5.90;50.60
20358;DHT22;75325;47.812;13.026;2024-01-30T01:15:13;5.80;50.60
20358;DHT22;75325;47.812;13.026;2024-01-30T01:17:43;5.80;50.60
20358;DHT22;75325;47.812;13.026;2024-01-30T01:20:11;5.70;50.60
20358;DHT22;75325;47.812;13.026;2024-01-30T01:22:40;5.70;50.70
20358;DHT22;75325;47.812;13.026;2024-01-30T01:25:08;5.70;50.70
20358;DHT22;75325;47.812;13.026;2024-01-30T01:27:37;5.70;50.70
20358;DHT22;75325;47.812;13.026;2024-01-30T01:30:10;5.60;50.70
20358;DHT22;75325;47.812;13.026;2024-01-30T01:32:39;5.60;50.80
20358;DHT22;75325;47.812;13.026;2024-01-30T01:35:13;5.60;50.80
20358;DHT22;75325;47.812;13.026;2024-01-30T01:37:42;5.50;50.80
20358;DHT22;75325;47.812;13.026;2024-01-30T01:40:10;5.50;50.90
20358;DHT22;75325;47.812;13.026;2024-01-30T01:42:39;5.50;50.90
20358;DHT22;75325;47.812;13.026;2024-01-30T01:45:08;5.50;51.00
20358;DHT22;75325;47.812;13.026;2024-01-30T01:47:37;5.50;51.10
20358;DHT22;75325;47.812;13.026;2024-01-30T01:50:06;5.50;51.10
20358;DHT22;75325;47.812;13.026;2024-01-30T01:52:36;5.50;51.10
20358;DHT22;75325;47.812;13.026;2024-01-30T01:55:06;5.50;51.10
20358;DHT22;75325;47.812;13.026;2024-01-30T01:57:37;5.60;51.20
20358;DHT22;75325;47.812;13.026;2024-01-30T02:00:07;5.60;51.20
20358;DHT22;75325;47.812;13.026;2024-01-30T02:02:39;5.60;51.20
20358;DHT22;75325;47.812;13.026;2024-01-30T02:05:08;5.50;51.10
20358;DHT22;75325;47.812;13.026;2024-01-30T02:07:38;5.50;51.10
20358;DHT22;75325;47.812;13.026;2024-01-30T02:10:08;5.50;51.10
20358;DHT22;75325;47.812;13.026;2024-01-30T02:12:37;5.50;51.50
20358;DHT22;75325;47.812;13.026;2024-01-30T02:15:06;5.50;51.20
20358;DHT22;75325;47.812;13.026;2024-01-30T02:17:35;5.40;51.20
20358;DHT22;75325;47.812;13.026;2024-01-30T02:20:04;5.40;51.20
20358;DHT22;75325;47.812;13.026;2024-01-30T02:22:34;5.40;51.30
20358;DHT22;75325;47.812;13.026;2024-01-30T02:25:03;5.40;51.30
20358;DHT22;75325;47.812;13.026;2024-01-30T02:27:32;5.30;51.30
20358;DHT22;75325;47.812;13.026;2024-01-30T02:30:00;5.30;51.40
20358;DHT22;75325;47.812;13.026;2024-01-30T02:32:29;5.30;51.40
20358;DHT22;75325;47.812;13.026;2024-01-30T02:34:57;5.30;51.50
20358;DHT22;75325;47.812;13.026;2024-01-30T02:37:25;5.30;51.50
20358;DHT22;75325;47.812;13.026;2024-01-30T02:39:55;5.30;51.50
20358;DHT22;75325;47.812;13.026;2024-01-30T02:42:23;5.30;51.60
20358;DHT22;75325;47.812;13.026;2024-01-30T02:44:52;5.30;51.60
20358;DHT22;75325;47.812;13.026;2024-01-30T02:47:20;5.30;51.60
20358;DHT22;75325;47.812;13.026;2024-01-30T02:49:48;5.30;51.60
20358;DHT22;75325;47.812;13.026;2024-01-30T02:52:21;5.30;51.50
20358;DHT22;75325;47.812;13.026;2024-01-30T02:54:49;5.30;51.60
20358;DHT22;75325;47.812;13.026;2024-01-30T02:57:19;5.30;51.60
20358;DHT22;75325;47.812;13.026;2024-01-30T02:59:48;5.20;51.60
20358;DHT22;75325;47.812;13.026;2024-01-30T03:02:16;5.20;51.60
20358;DHT22;75325;47.812;13.026;2024-01-30T03:04:44;5.20;51.70
20358;DHT22;75325;47.812;13.026;2024-01-30T03:07:13;5.20;51.70
20358;DHT22;75325;47.812;13.026;2024-01-30T03:09:41;5.10;51.70
20358;DHT22;75325;47.812;13.026;2024-01-30T03:12:09;5.20;51.70
20358;DHT22;75325;47.812;13.026;2024-01-30T03:14:39;5.20;51.70
20358;DHT22;75325;47.812;13.026;2024-01-30T03:17:07;5.10;51.70
20358;DHT22;75325;47.812;13.026;2024-01-30T03:19:36;5.10;52.00
20358;DHT22;75325;47.812;13.026;2024-01-30T03:22:04;5.00;51.60
20358;DHT22;75325;47.812;13.026;2024-01-30T03:24:33;5.00;51.70
20358;DHT22;75325;47.812;13.026;2024-01-30T03:27:01;5.00;51.70
20358;DHT22;75325;47.812;13.026;2024-01-30T03:29:29;5.00;51.80
20358;DHT22;75325;47.812;13.026;2024-01-30T03:31:59;5.00;51.80
20358;DHT22;75325;47.812;13.026;2024-01-30T03:34:27;5.00;51.90
20358;DHT22;75325;47.812;13.026;2024-01-30T03:36:55;5.00;51.90
20358;DHT22;75325;47.812;13.026;2024-01-30T03:39:24;5.00;51.90
20358;DHT22;75325;47.812;13.026;2024-01-30T03:41:53;5.00;51.90
20358;DHT22;75325;47.812;13.026;2024-01-30T03:44:21;5.00;51.90
20358;DHT22;75325;47.812;13.026;2024-01-30T03:46:49;5.00;51.90
20358;DHT22;75325;47.812;13.026;2024-01-30T03:49:19;5.00;51.90
20358;DHT22;75325;47.812;13.026;2024-01-30T03:51:48;4.90;51.90
20358;DHT22;75325;47.812;13.026;2024-01-30T03:54:16;5.00;52.00
20358;DHT22;75325;47.812;13.026;2024-01-30T03:56:45;5.00;52.40
20358;DHT22;75325;47.812;13.026;2024-01-30T03:59:13;5.00;52.00
20358;DHT22;75325;47.812;13.026;2024-01-30T04:01:41;5.00;52.10
20358;DHT22;75325;47.812;13.026;2024-01-30T04:04:10;5.00;52.10
20358;DHT22;75325;47.812;13.026;2024-01-30T04:06:39;5.00;52.10
20358;DHT22;75325;47.812;13.026;2024-01-30T04:09:08;5.00;52.10
20358;DHT22;75325;47.812;13.026;2024-01-30T04:11:36;5.00;52.10
20358;DHT22;75325;47.812;13.026;2024-01-30T04:14:04;5.00;52.20
20358;DHT22;75325;47.812;13.026;2024-01-30T04:16:33;5.10;52.20
20358;DHT22;75325;47.812;13.026;2024-01-30T04:19:01;5.10;52.20
20358;DHT22;75325;47.812;13.026;2024-01-30T04:21:30;5.10;52.20
20358;DHT22;75325;47.812;13.026;2024-01-30T04:23:59;5.10;52.30
20358;DHT22;75325;47.812;13.026;2024-01-30T04:26:27;5.20;52.40
20358;DHT22;75325;47.812;13.026;2024-01-30T04:28:56;5.20;52.40
20358;DHT22;75325;47.812;13.026;2024-01-30T04:31:24;5.30;52.40
20358;DHT22;75325;47.812;13.026;2024-01-30T04:33:52;5.30;52.50
20358;DHT22;75325;47.812;13.026;2024-01-30T04:36:21;5.40;52.50
20358;DHT22;75325;47.812;13.026;2024-01-30T04:38:49;5.50;52.50
20358;DHT22;75325;47.812;13.026;2024-01-30T04:41:19;5.50;52.50
20358;DHT22;75325;47.812;13.026;2024-01-30T04:43:47;5.60;52.50
20358;DHT22;75325;47.812;13.026;2024-01-30T04:46:16;5.70;52.50
20358;DHT22;75325;47.812;13.026;2024-01-30T04:48:45;5.70;52.40
20358;DHT22;75325;47.812;13.026;2024-01-30T04:51:13;5.80;52.30
20358;DHT22;75325;47.812;13.026;2024-01-30T04:53:41;5.80;52.30
20358;DHT22;75325;47.812;13.026;2024-01-30T04:56:09;5.90;52.30
20358;DHT22;75325;47.812;13.026;2024-01-30T04:58:39;6.00;52.40
20358;DHT22;75325;47.812;13.026;2024-01-30T05:01:08;6.10;52.40
20358;DHT22;75325;47.812;13.026;2024-01-30T05:03:37;6.20;52.30
20358;DHT22;75325;47.812;13.026;2024-01-30T05:06:06;6.20;52.30
20358;DHT22;75325;47.812;13.026;2024-01-30T05:08:35;6.20;52.20
20358;DHT22;75325;47.812;13.026;2024-01-30T05:11:05;6.30;52.40
20358;DHT22;75325;47.812;13.026;2024-01-30T05:13:34;6.20;52.00
20358;DHT22;75325;47.812;13.026;2024-01-30T05:16:04;6.20;52.00
20358;DHT22;75325;47.812;13.026;2024-01-30T05:18:32;6.20;52.00
20358;DHT22;75325;47.812;13.026;2024-01-30T05:21:02;6.20;52.10
20358;DHT22;75325;47.812;13.026;2024-01-30T05:23:31;6.30;52.20
20358;DHT22;75325;47.812;13.026;2024-01-30T05:25:59;6.30;52.10
20358;DHT22;75325;47.812;13.026;2024-01-30T05:28:29;6.40;52.30
20358;DHT22;75325;47.812;13.026;2024-01-30T05:30:58;6.40;52.20
20358;DHT22;75325;47.812;13.026;2024-01-30T05:33:28;6.40;52.10
20358;DHT22;75325;47.812;13.026;2024-01-30T05:35:56;6.40;52.10
20358;DHT22;75325;47.812;13.026;2024-01-30T05:38:25;6.40;52.00
20358;DHT22;75325;47.812;13.026;2024-01-30T05:40:53;6.50;52.00
20358;DHT22;75325;47.812;13.026;2024-01-30T05:43:21;6.40;52.00
20358;DHT22;75325;47.812;13.026;2024-01-30T05:45:50;6.40;51.90
20358;DHT22;75325;47.812;13.026;2024-01-30T05:48:19;6.40;51.90
20358;DHT22;75325;47.812;13.026;2024-01-30T05:50:49;6.40;51.90
20358;DHT22;75325;47.812;13.026;2024-01-30T05:53:17;6.40;51.90
20358;DHT22;75325;47.812;13.026;2024-01-30T05:55:46;6.40;51.90
20358;DHT22;75325;47.812;13.026;2024-01-30T05:58:14;6.40;51.90
20358;DHT22;75325;47.812;13.026;2024-01-30T06:00:43;6.40;51.80
20358;DHT22;75325;47.812;13.026;2024-01-30T06:03:11;6.40;51.80
20358;DHT22;75325;47.812;13.026;2024-01-30T06:05:39;6.40;51.80
20358;DHT22;75325;47.812;13.026;2024-01-30T06:08:09;6.40;51.80
20358;DHT22;75325;47.812;13.026;2024-01-30T06:10:38;6.40;51.80
20358;DHT22;75325;47.812;13.026;2024-01-30T06:13:07;6.40;51.90
20358;DHT22;75325;47.812;13.026;2024-01-30T06:15:35;6.40;52.00
20358;DHT22;75325;47.812;13.026;2024-01-30T06:18:04;6.50;52.30
20358;DHT22;75325;47.812;13.026;2024-01-30T06:20:33;6.50;52.00
20358;DHT22;75325;47.812;13.026;2024-01-30T06:23:01;6.60;52.00
20358;DHT22;75325;47.812;13.026;2024-01-30T06:25:30;6.60;51.90
20358;DHT22;75325;47.812;13.026;2024-01-30T06:27:59;6.70;51.90
20358;DHT22;75325;47.812;13.026;2024-01-30T06:30:27;6.70;51.80
20358;DHT22;75325;47.812;13.026;2024-01-30T06:32:56;6.70;51.80
20358;DHT22;75325;47.812;13.026;2024-01-30T06:35:25;6.70;51.80
20358;DHT22;75325;47.812;13.026;2024-01-30T06:37:53;6.70;51.80
20358;DHT22;75325;47.812;13.026;2024-01-30T06:40:21;6.70;51.70
20358;DHT22;75325;47.812;13.026;2024-01-30T06:42:51;6.70;51.70
20358;DHT22;75325;47.812;13.026;2024-01-30T06:45:20;6.60;51.70
20358;DHT22;75325;47.812;13.026;2024-01-30T06:47:48;6.60;51.70
20358;DHT22;75325;47.812;13.026;2024-01-30T06:50:16;6.60;51.70
20358;DHT22;75325;47.812;13.026;2024-01-30T06:52:45;6.60;51.70
20358;DHT22;75325;47.812;13.026;2024-01-30T06:55:14;6.60;51.70
20358;DHT22;75325;47.812;13.026;2024-01-30T06:57:42;6.60;51.80
20358;DHT22;75325;47.812;13.026;2024-01-30T07:00:13;6.60;51.80
20358;DHT22;75325;47.812;13.026;2024-01-30T07:02:43;6.70;51.80
20358;DHT22;75325;47.812;13.026;2024-01-30T07:05:12;6.70;51.80
20358;DHT22;75325;47.812;13.026;2024-01-30T07:07:40;6.70;52.00
20358;DHT22;75325;47.812;13.026;2024-01-30T07:10:09;6.70;51.70
20358;DHT22;75325;47.812;13.026;2024-01-30T07:12:37;6.80;51.80
20358;DHT22;75325;47.812;13.026;2024-01-30T07:15:06;6.80;51.70
20358;DHT22;75325;47.812;13.026;2024-01-30T07:17:38;6.90;51.70
20358;DHT22;75325;47.812;13.026;2024-01-30T07:20:07;6.90;51.70
20358;DHT22;75325;47.812;13.026;2024-01-30T07:22:38;6.90;51.70
20358;DHT22;75325;47.812;13.026;2024-01-30T07:25:07;6.90;51.60
20358;DHT22;75325;47.812;13.026;2024-01-30T07:27:36;7.00;52.60
20358;DHT22;75325;47.812;13.026;2024-01-30T07:30:06;7.00;51.70
20358;DHT22;75325;47.812;13.026;2024-01-30T07:32:34;7.10;51.70
20358;DHT22;75325;47.812;13.026;2024-01-30T07:35:04;7.10;51.70
20358;DHT22;75325;47.812;13.026;2024-01-30T07:37:35;7.10;51.80
20358;DHT22;75325;47.812;13.026;2024-01-30T07:40:05;7.20;51.80
20358;DHT22;75325;47.812;13.026;2024-01-30T07:42:33;7.30;51.80
20358;DHT22;75325;47.812;13.026;2024-01-30T07:45:02;7.40;51.70
20358;DHT22;75325;47.812;13.026;2024-01-30T07:47:31;7.50;51.70
20358;DHT22;75325;47.812;13.026;2024-01-30T07:49:59;7.60;51.70
20358;DHT22;75325;47.812;13.026;2024-01-30T07:52:29;7.60;51.60
20358;DHT22;75325;47.812;13.026;2024-01-30T07:58:16;7.70;51.60
20358;DHT22;75325;47.812;13.026;2024-01-30T08:00:46;7.80;51.60
20358;DHT22;75325;47.812;13.026;2024-01-30T08:03:14;7.80;51.60
20358;DHT22;75325;47.812;13.026;2024-01-30T08:05:43;7.90;51.60
20358;DHT22;75325;47.812;13.026;2024-01-30T08:08:13;8.10;51.70
20358;DHT22;75325;47.812;13.026;2024-01-30T08:10:42;8.20;51.60
20358;DHT22;75325;47.812;13.026;2024-01-30T08:13:10;8.30;51.60
20358;DHT22;75325;47.812;13.026;2024-01-30T08:15:38;8.40;51.50
20358;DHT22;75325;47.812;13.026;2024-01-30T08:18:06;8.50;52.10
20358;DHT22;75325;47.812;13.026;2024-01-30T08:20:35;8.60;51.40
20358;DHT22;75325;47.812;13.026;2024-01-30T08:23:03;8.70;51.40
20358;DHT22;75325;47.812;13.026;2024-01-30T08:25:33;8.80;51.30
20358;DHT22;75325;47.812;13.026;2024-01-30T08:28:03;8.90;51.30
20358;DHT22;75325;47.812;13.026;2024-01-30T08:30:31;9.00;51.30
20358;DHT22;75325;47.812;13.026;2024-01-30T08:33:00;9.10;51.30
20358;DHT22;75325;47.812;13.026;2024-01-30T08:35:28;9.20;51.20
20358;DHT22;75325;47.812;13.026;2024-01-30T08:38:00;9.30;51.10
20358;DHT22;75325;47.812;13.026;2024-01-30T08:40:30;9.40;51.10
20358;DHT22;75325;47.812;13.026;2024-01-30T08:43:00;9.60;51.40
20358;DHT22;75325;47.812;13.026;2024-01-30T08:45:29;10.10;52.20
20358;DHT22;75325;47.812;13.026;2024-01-30T08:47:58;10.80;52.50
20358;DHT22;75325;47.812;13.026;2024-01-30T08:50:26;11.50;52.30
20358;DHT22;75325;47.812;13.026;2024-01-30T08:52:55;12.10;52.10
20358;DHT22;75325;47.812;13.026;2024-01-30T08:55:24;12.70;51.70
20358;DHT22;75325;47.812;13.026;2024-01-30T08:57:53;13.40;51.30
20358;DHT22;75325;47.812;13.026;2024-01-30T09:00:23;13.80;50.60
20358;DHT22;75325;47.812;13.026;2024-01-30T09:02:51;14.20;49.90
20358;DHT22;75325;47.812;13.026;2024-01-30T09:05:20;14.50;49.50
20358;DHT22;75325;47.812;13.026;2024-01-30T09:07:48;14.90;49.40
20358;DHT22;75325;47.812;13.026;2024-01-30T09:10:17;15.30;49.00
20358;DHT22;75325;47.812;13.026;2024-01-30T09:12:47;15.70;48.80
20358;DHT22;75325;47.812;13.026;2024-01-30T09:15:17;16.20;49.00
20358;DHT22;75325;47.812;13.026;2024-01-30T09:17:50;16.80;47.90
20358;DHT22;75325;47.812;13.026;2024-01-30T09:20:18;17.10;47.20
20358;DHT22;75325;47.812;13.026;2024-01-30T09:22:47;17.50;46.90
20358;DHT22;75325;47.812;13.026;2024-01-30T09:25:16;17.70;46.10
20358;DHT22;75325;47.812;13.026;2024-01-30T09:27:46;17.90;45.40
20358;DHT22;75325;47.812;13.026;2024-01-30T09:30:15;18.10;45.40
20358;DHT22;75325;47.812;13.026;2024-01-30T09:32:43;18.40;45.20
20358;DHT22;75325;47.812;13.026;2024-01-30T09:35:13;18.70;44.90
20358;DHT22;75325;47.812;13.026;2024-01-30T09:37:42;19.00;44.60
20358;DHT22;75325;47.812;13.026;2024-01-30T09:40:10;19.30;44.10
20358;DHT22;75325;47.812;13.026;2024-01-30T09:42:40;19.70;43.70
20358;DHT22;75325;47.812;13.026;2024-01-30T09:45:13;19.80;42.70
20358;DHT22;75325;47.812;13.026;2024-01-30T09:47:43;19.80;42.10
20358;DHT22;75325;47.812;13.026;2024-01-30T09:50:15;19.90;42.40
20358;DHT22;75325;47.812;13.026;2024-01-30T09:52:45;20.20;42.40
20358;DHT22;75325;47.812;13.026;2024-01-30T09:55:13;20.50;42.00
20358;DHT22;75325;47.812;13.026;2024-01-30T09:57:42;20.90;42.10
20358;DHT22;75325;47.812;13.026;2024-01-30T10:00:12;21.40;41.50
20358;DHT22;75325;47.812;13.026;2024-01-30T10:02:40;21.50;40.40
20358;DHT22;75325;47.812;13.026;2024-01-30T10:05:09;21.60;40.30
20358;DHT22;75325;47.812;13.026;2024-01-30T10:07:38;22.10;40.50
20358;DHT22;75325;47.812;13.026;2024-01-30T10:10:17;22.60;39.90
20358;DHT22;75325;47.812;13.026;2024-01-30T10:12:46;23.10;39.50
20358;DHT22;75325;47.812;13.026;2024-01-30T10:15:15;23.60;39.20
20358;DHT22;75325;47.812;13.026;2024-01-30T10:17:45;24.30;38.30
20358;DHT22;75325;47.812;13.026;2024-01-30T10:20:13;24.50;37.70
20358;DHT22;75325;47.812;13.026;2024-01-30T10:22:44;24.90;37.40
20358;DHT22;75325;47.812;13.026;2024-01-30T10:25:13;25.20;36.90
20358;DHT22;75325;47.812;13.026;2024-01-30T10:27:41;25.50;36.70
20358;DHT22;75325;47.812;13.026;2024-01-30T10:30:10;25.80;36.20
20358;DHT22;75325;47.812;13.026;2024-01-30T10:32:38;25.90;35.70
20358;DHT22;75325;47.812;13.026;2024-01-30T10:35:07;25.90;35.40
20358;DHT22;75325;47.812;13.026;2024-01-30T10:37:36;25.90;35.10
20358;DHT22;75325;47.812;13.026;2024-01-30T10:40:08;25.90;35.00
20358;DHT22;75325;47.812;13.026;2024-01-30T10:42:37;26.00;34.90
20358;DHT22;75325;47.812;13.026;2024-01-30T10:45:07;26.40;34.80
20358;DHT22;75325;47.812;13.026;2024-01-30T10:47:36;26.60;34.20
20358;DHT22;75325;47.812;13.026;2024-01-30T10:50:06;26.70;33.80
20358;DHT22;75325;47.812;13.026;2024-01-30T10:52:36;26.70;33.50
20358;DHT22;75325;47.812;13.026;2024-01-30T10:55:07;26.70;33.30
20358;DHT22;75325;47.812;13.026;2024-01-30T10:57:36;26.40;32.80
20358;DHT22;75325;47.812;13.026;2024-01-30T11:00:07;26.20;33.00
20358;DHT22;75325;47.812;13.026;2024-01-30T11:02:39;26.00;32.50
20358;DHT22;75325;47.812;13.026;2024-01-30T11:05:08;25.70;32.60
20358;DHT22;75325;47.812;13.026;2024-01-30T11:07:39;25.40;32.30
20358;DHT22;75325;47.812;13.026;2024-01-30T11:10:09;24.90;32.20
20358;DHT22;75325;47.812;13.026;2024-01-30T11:12:42;24.50;32.60
20358;DHT22;75325;47.812;13.026;2024-01-30T11:15:14;24.30;33.00
20358;DHT22;75325;47.812;13.026;2024-01-30T11:17:44;24.10;33.20
20358;DHT22;75325;47.812;13.026;2024-01-30T11:20:15;23.80;33.10
20358;DHT22;75325;47.812;13.026;2024-01-30T11:22:46;23.40;33.30
20358;DHT22;75325;47.812;13.026;2024-01-30T11:25:17;23.00;33.90
20358;DHT22;75325;47.812;13.026;2024-01-30T11:27:46;22.60;34.20
20358;DHT22;75325;47.812;13.026;2024-01-30T11:30:24;22.10;34.30
20358;DHT22;75325;47.812;13.026;2024-01-30T11:33:00;21.40;34.30
20358;DHT22;75325;47.812;13.026;2024-01-30T11:35:31;20.60;34.80
20358;DHT22;75325;47.812;13.026;2024-01-30T11:38:01;19.80;35.50
20358;DHT22;75325;47.812;13.026;2024-01-30T11:40:32;19.10;36.30
20358;DHT22;75325;47.812;13.026;2024-01-30T11:43:02;18.60;36.90
20358;DHT22;75325;47.812;13.026;2024-01-30T11:45:32;18.20;37.60
20358;DHT22;75325;47.812;13.026;2024-01-30T11:48:01;17.80;37.80
20358;DHT22;75325;47.812;13.026;2024-01-30T11:50:32;17.60;38.10
20358;DHT22;75325;47.812;13.026;2024-01-30T11:53:01;17.40;38.30
20358;DHT22;75325;47.812;13.026;2024-01-30T11:55:32;17.20;38.40
20358;DHT22;75325;47.812;13.026;2024-01-30T11:58:01;17.00;38.50
20358;DHT22;75325;47.812;13.026;2024-01-30T12:00:31;16.90;38.70
20358;DHT22;75325;47.812;13.026;2024-01-30T12:03:02;16.90;38.90
20358;DHT22;75325;47.812;13.026;2024-01-30T12:05:32;16.80;38.90
20358;DHT22;75325;47.812;13.026;2024-01-30T12:08:00;16.80;39.10
20358;DHT22;75325;47.812;13.026;2024-01-30T12:10:31;16.80;39.40
20358;DHT22;75325;47.812;13.026;2024-01-30T12:13:00;16.80;39.20
20358;DHT22;75325;47.812;13.026;2024-01-30T12:15:29;16.90;39.30
20358;DHT22;75325;47.812;13.026;2024-01-30T12:18:04;17.00;39.30
20358;DHT22;75325;47.812;13.026;2024-01-30T12:20:34;17.00;39.20
20358;DHT22;75325;47.812;13.026;2024-01-30T12:23:03;17.00;39.20
20358;DHT22;75325;47.812;13.026;2024-01-30T12:25:33;17.00;39.20
20358;DHT22;75325;47.812;13.026;2024-01-30T12:28:02;17.10;39.30
20358;DHT22;75325;47.812;13.026;2024-01-30T12:30:31;17.10;39.90
20358;DHT22;75325;47.812;13.026;2024-01-30T12:33:00;17.20;39.20
20358;DHT22;75325;47.812;13.026;2024-01-30T12:35:31;17.20;39.20
20358;DHT22;75325;47.812;13.026;2024-01-30T12:38:00;17.30;39.20
20358;DHT22;75325;47.812;13.026;2024-01-30T12:40:29;17.30;39.20
20358;DHT22;75325;47.812;13.026;2024-01-30T12:42:59;17.30;40.00
20358;DHT22;75325;47.812;13.026;2024-01-30T12:45:28;17.40;39.10
20358;DHT22;75325;47.812;13.026;2024-01-30T12:47:56;17.40;39.10
20358;DHT22;75325;47.812;13.026;2024-01-30T12:50:25;17.50;39.20
20358;DHT22;75325;47.812;13.026;2024-01-30T12:52:53;17.60;39.10
20358;DHT22;75325;47.812;13.026;2024-01-30T12:55:23;17.60;39.20
20358;DHT22;75325;47.812;13.026;2024-01-30T12:57:51;17.70;39.10
20358;DHT22;75325;47.812;13.026;2024-01-30T13:00:22;17.80;39.00
20358;DHT22;75325;47.812;13.026;2024-01-30T13:02:50;17.90;38.90
20358;DHT22;75325;47.812;13.026;2024-01-30T13:05:18;18.00;39.00
20358;DHT22;75325;47.812;13.026;2024-01-30T13:07:47;18.00;38.90
20358;DHT22;75325;47.812;13.026;2024-01-30T13:10:16;18.10;38.90
20358;DHT22;75325;47.812;13.026;2024-01-30T13:12:44;18.20;39.00
20358;DHT22;75325;47.812;13.026;2024-01-30T13:15:13;18.20;38.70
20358;DHT22;75325;47.812;13.026;2024-01-30T13:17:43;18.30;38.70
20358;DHT22;75325;47.812;13.026;2024-01-30T13:20:14;18.40;38.60
20358;DHT22;75325;47.812;13.026;2024-01-30T13:22:47;18.40;38.50
20358;DHT22;75325;47.812;13.026;2024-01-30T13:25:16;18.40;38.40
20358;DHT22;75325;47.812;13.026;2024-01-30T13:27:45;18.50;38.40
20358;DHT22;75325;47.812;13.026;2024-01-30T13:30:13;18.50;38.30
20358;DHT22;75325;47.812;13.026;2024-01-30T13:32:44;18.50;38.20
20358;DHT22;75325;47.812;13.026;2024-01-30T13:35:13;18.50;38.20
20358;DHT22;75325;47.812;13.026;2024-01-30T13:37:42;18.60;38.20
20358;DHT22;75325;47.812;13.026;2024-01-30T13:40:11;18.60;38.20
20358;DHT22;75325;47.812;13.026;2024-01-30T13:42:41;18.60;38.20
20358;DHT22;75325;47.812;13.026;2024-01-30T13:45:10;18.60;38.30
20358;DHT22;75325;47.812;13.026;2024-01-30T13:47:38;18.60;38.30
20358;DHT22;75325;47.812;13.026;2024-01-30T13:50:08;18.60;38.30
20358;DHT22;75325;47.812;13.026;2024-01-30T13:52:42;18.60;38.30
20358;DHT22;75325;47.812;13.026;2024-01-30T13:55:12;18.60;38.50
20358;DHT22;75325;47.812;13.026;2024-01-30T13:57:41;18.60;38.40
20358;DHT22;75325;47.812;13.026;2024-01-30T14:00:10;18.60;38.30
20358;DHT22;75325;47.812;13.026;2024-01-30T14:02:39;18.60;38.30
20358;DHT22;75325;47.812;13.026;2024-01-30T14:05:09;18.60;38.30
20358;DHT22;75325;47.812;13.026;2024-01-30T14:07:38;18.50;38.30
20358;DHT22;75325;47.812;13.026;2024-01-30T14:10:09;18.50;38.30
20358;DHT22;75325;47.812;13.026;2024-01-30T14:12:42;18.50;38.30
20358;DHT22;75325;47.812;13.026;2024-01-30T14:15:11;18.50;38.40
20358;DHT22;75325;47.812;13.026;2024-01-30T14:17:55;18.40;38.40
20358;DHT22;75325;47.812;13.026;2024-01-30T14:20:26;18.30;38.40
20358;DHT22;75325;47.812;13.026;2024-01-30T14:22:55;18.30;38.40
20358;DHT22;75325;47.812;13.026;2024-01-30T14:25:24;18.20;38.40
20358;DHT22;75325;47.812;13.026;2024-01-30T14:27:52;18.20;38.70
20358;DHT22;75325;47.812;13.026;2024-01-30T14:30:21;18.10;38.50
20358;DHT22;75325;47.812;13.026;2024-01-30T14:32:49;18.00;38.50
20358;DHT22;75325;47.812;13.026;2024-01-30T14:35:18;17.90;38.60
20358;DHT22;75325;47.812;13.026;2024-01-30T14:37:49;17.90;38.70
20358;DHT22;75325;47.812;13.026;2024-01-30T14:40:18;17.80;38.70
20358;DHT22;75325;47.812;13.026;2024-01-30T14:42:47;17.70;38.80
20358;DHT22;75325;47.812;13.026;2024-01-30T14:45:16;17.60;38.80
20358;DHT22;75325;47.812;13.026;2024-01-30T14:47:45;17.50;38.80
20358;DHT22;75325;47.812;13.026;2024-01-30T14:50:14;17.50;39.00
20358;DHT22;75325;47.812;13.026;2024-01-30T14:52:43;17.50;39.10
20358;DHT22;75325;47.812;13.026;2024-01-30T14:55:13;17.50;39.20
20358;DHT22;75325;47.812;13.026;2024-01-30T14:57:42;17.40;39.10
20358;DHT22;75325;47.812;13.026;2024-01-30T15:00:13;17.40;39.10
20358;DHT22;75325;47.812;13.026;2024-01-30T15:02:43;17.30;39.10
20358;DHT22;75325;47.812;13.026;2024-01-30T15:05:14;17.20;39.20
20358;DHT22;75325;47.812;13.026;2024-01-30T15:07:43;17.20;39.20
20358;DHT22;75325;47.812;13.026;2024-01-30T15:10:13;17.10;39.30
20358;DHT22;75325;47.812;13.026;2024-01-30T15:12:41;17.00;39.40
20358;DHT22;75325;47.812;13.026;2024-01-30T15:15:10;16.90;39.50
20358;DHT22;75325;47.812;13.026;2024-01-30T15:17:39;16.80;39.50
20358;DHT22;75325;47.812;13.026;2024-01-30T15:20:08;16.70;39.60
20358;DHT22;75325;47.812;13.026;2024-01-30T15:22:37;16.60;39.70
20358;DHT22;75325;47.812;13.026;2024-01-30T15:25:07;16.50;39.70
20358;DHT22;75325;47.812;13.026;2024-01-30T15:27:38;16.40;39.80
20358;DHT22;75325;47.812;13.026;2024-01-30T15:30:07;16.30;39.90
20358;DHT22;75325;47.812;13.026;2024-01-30T15:32:35;16.20;39.90
20358;DHT22;75325;47.812;13.026;2024-01-30T15:35:05;16.10;40.10
20358;DHT22;75325;47.812;13.026;2024-01-30T15:37:34;16.00;40.20
20358;DHT22;75325;47.812;13.026;2024-01-30T15:40:03;15.90;40.30